Time;durP1;ratioP1;P1;durP2;ratioP2;P2;SDS_P1;SDS_P2;PMS_P1;PMS_P2;Temp;Humidity;BMP_temperature;BMP_pressure;BME280_temperature;BME280_humidity;BME280_pressure;Samples;Min_cycle;Max_cycle;Signal;HPM_P1;HPM_P2
2021/12/23 00:00:22;;;;;;;34.83;21.30;;;-3.00;99.90;;;;;;5079285;28;20193;-80
2021/12/23 00:02:48;;;;;;;31.75;18.38;;;-3.00;99.90;;;;;;5079214;28;20209;-79
2021/12/23 00:05:15;;;;;;;38.30;21.33;;;-3.00;99.90;;;;;;5077995;28;20178;-79
2021/12/23 00:07:42;;;;;;;34.47;22.17;;;-3.00;99.90;;;;;;5079082;28;20189;-80
2021/12/23 00:10:09;;;;;;;27.95;19.02;;;-3.00;99.90;;;;;;5079245;28;20186;-79
2021/12/23 00:12:39;;;;;;;36.97;21.77;;;-3.00;99.90;;;;;;5078845;28;20238;-81
2021/12/23 00:15:16;;;;;;;26.73;18.23;;;-3.00;99.90;;;;;;5079373;28;20185;-79
2021/12/23 00:23:25;;;;;;;38.55;24.05;;;-3.20;99.90;;;;;;5071559;28;20209;-81
2021/12/23 00:25:55;;;;;;;36.08;18.50;;;-3.30;99.90;;;;;;5078420;28;20181;-80
2021/12/23 00:28:24;;;;;;;32.55;19.17;;;-3.30;99.90;;;;;;5077429;28;20192;-79
2021/12/23 00:30:51;;;;;;;34.38;20.58;;;-3.30;99.90;;;;;;5078034;28;20209;-79
2021/12/23 00:33:17;;;;;;;31.52;20.13;;;-3.20;99.90;;;;;;5069993;28;20190;-79
2021/12/23 00:35:44;;;;;;;37.30;21.95;;;-3.10;99.90;;;;;;5077614;28;20237;-80
2021/12/23 00:38:18;;;;;;;30.88;17.95;;;-3.20;99.90;;;;;;5078016;28;20200;-80
2021/12/23 00:40:45;;;;;;;34.97;21.05;;;-3.20;99.90;;;;;;5078041;28;20200;-80
2021/12/23 00:43:12;;;;;;;35.00;21.45;;;-3.10;99.90;;;;;;5063987;28;20226;-80
2021/12/23 00:45:40;;;;;;;34.75;21.20;;;-3.10;99.90;;;;;;5071217;28;20389;-80
2021/12/23 00:48:07;;;;;;;33.83;21.05;;;-3.10;99.90;;;;;;5069095;28;20198;-81
2021/12/23 00:50:34;;;;;;;30.15;19.42;;;-3.10;99.90;;;;;;5071289;28;20656;-80
2021/12/23 00:53:05;;;;;;;35.17;20.83;;;-3.10;99.90;;;;;;5072072;28;20234;-80
2021/12/23 00:55:32;;;;;;;35.85;22.52;;;-3.10;99.90;;;;;;5071212;28;20278;-80
2021/12/23 00:57:59;;;;;;;32.08;20.52;;;-3.10;99.90;;;;;;5070416;28;20216;-80
2021/12/23 01:00:27;;;;;;;46.33;21.48;;;-3.10;99.90;;;;;;5072614;28;20215;-80
2021/12/23 01:02:58;;;;;;;34.83;23.35;;;-3.10;99.90;;;;;;5072355;28;20248;-80
2021/12/23 01:05:25;;;;;;;32.45;20.65;;;-3.10;99.90;;;;;;5062580;28;20208;-81
2021/12/23 01:07:52;;;;;;;32.67;17.70;;;-3.10;99.90;;;;;;5058839;28;20209;-81
2021/12/23 01:10:20;;;;;;;34.95;21.17;;;-3.10;99.90;;;;;;5059308;28;20209;-81
2021/12/23 01:12:50;;;;;;;30.05;18.15;;;-3.10;99.90;;;;;;5059111;28;20295;-81
2021/12/23 01:15:39;;;;;;;31.98;19.73;;;-3.20;99.90;;;;;;5059749;28;20210;-81
2021/12/23 01:18:14;;;;;;;34.92;19.80;;;-3.30;99.90;;;;;;5060080;28;20210;-81
2021/12/23 01:20:50;;;;;;;43.22;21.70;;;-3.20;99.90;;;;;;5059415;28;20205;-81
2021/12/23 01:23:19;;;;;;;34.55;19.45;;;-3.20;99.90;;;;;;5038951;28;20210;-81
2021/12/23 01:25:46;;;;;;;45.40;21.45;;;-3.10;99.90;;;;;;5040294;28;20210;-81
2021/12/23 01:28:13;;;;;;;33.50;20.35;;;-3.10;99.90;;;;;;5060179;28;20216;-81
2021/12/23 01:30:40;;;;;;;30.52;20.15;;;-3.00;99.90;;;;;;5059315;28;20255;-81
2021/12/23 01:33:10;;;;;;;37.42;21.85;;;-3.00;99.90;;;;;;5059081;28;20230;-81
2021/12/23 01:35:38;;;;;;;35.13;20.20;;;-3.10;99.90;;;;;;5058861;28;20210;-81
2021/12/23 01:38:05;;;;;;;37.55;21.55;;;-3.10;99.90;;;;;;5059444;28;20737;-81
2021/12/23 01:40:32;;;;;;;29.95;17.73;;;-3.00;99.90;;;;;;5058641;28;20205;-81
2021/12/23 01:42:59;;;;;;;32.05;18.17;;;-3.00;99.90;;;;;;5058116;28;20721;-81
2021/12/23 01:45:29;;;;;;;31.70;19.15;;;-2.90;99.90;;;;;;5059206;28;20201;-81
2021/12/23 01:47:56;;;;;;;34.60;20.67;;;-2.90;99.90;;;;;;5058894;28;20580;-81
2021/12/23 01:50:27;;;;;;;29.30;17.85;;;-2.80;99.90;;;;;;5057789;28;20821;-81
2021/12/23 01:52:54;;;;;;;31.77;18.92;;;-2.80;99.90;;;;;;5058587;28;20709;-81
2021/12/23 01:55:21;;;;;;;27.60;16.27;;;-2.70;99.90;;;;;;5058519;28;20212;-81
2021/12/23 01:57:50;;;;;;;36.55;19.88;;;-2.70;99.90;;;;;;5059167;28;20210;-81
2021/12/23 02:00:20;;;;;;;35.72;18.60;;;-2.60;99.90;;;;;;5057152;28;20213;-81
2021/12/23 02:02:46;;;;;;;30.25;17.83;;;-2.60;99.90;;;;;;5058664;28;20229;-81
2021/12/23 02:05:13;;;;;;;37.17;21.48;;;-2.60;99.90;;;;;;5058100;28;20210;-81
2021/12/23 02:07:42;;;;;;;28.45;17.85;;;-2.60;99.90;;;;;;5059363;28;20216;-81
2021/12/23 02:10:09;;;;;;;33.47;19.33;;;-2.60;99.90;;;;;;5058499;28;20659;-81
2021/12/23 02:12:36;;;;;;;33.05;19.83;;;-2.60;99.90;;;;;;5058260;28;20236;-81
2021/12/23 02:15:04;;;;;;;26.67;18.05;;;-2.50;99.90;;;;;;5058637;28;20206;-81
2021/12/23 02:17:34;;;;;;;32.25;19.33;;;-2.60;99.90;;;;;;5058880;28;20553;-81
2021/12/23 02:20:04;;;;;;;27.90;17.90;;;-2.60;99.90;;;;;;5057966;28;20216;-81
2021/12/23 02:22:30;;;;;;;28.80;16.80;;;-2.60;99.90;;;;;;5057985;28;20604;-81
2021/12/23 02:24:57;;;;;;;34.15;20.40;;;-2.60;99.90;;;;;;5058133;28;20206;-81
2021/12/23 02:27:24;;;;;;;25.45;16.52;;;-2.60;99.90;;;;;;5058252;28;20205;-81
2021/12/23 02:29:51;;;;;;;36.42;17.30;;;-2.60;99.90;;;;;;5057706;28;20209;-81
2021/12/23 02:32:18;;;;;;;32.25;19.92;;;-2.60;99.90;;;;;;5059077;28;20236;-81
2021/12/23 02:34:45;;;;;;;25.00;16.98;;;-2.70;99.90;;;;;;5060144;28;20213;-81
2021/12/23 02:37:14;;;;;;;27.77;17.42;;;-2.70;99.90;;;;;;5057540;28;20208;-81
2021/12/23 02:39:41;;;;;;;34.70;19.88;;;-2.70;99.90;;;;;;5058435;28;20206;-80
2021/12/23 02:42:09;;;;;;;27.08;15.13;;;-2.80;99.90;;;;;;5057516;28;20229;-80
2021/12/23 02:44:36;;;;;;;27.02;17.48;;;-2.70;99.90;;;;;;5057847;28;20202;-80
2021/12/23 02:47:03;;;;;;;35.55;19.95;;;-2.70;99.90;;;;;;5057793;28;20205;-80
2021/12/23 02:49:29;;;;;;;28.05;18.45;;;-2.70;99.90;;;;;;5057154;28;20201;-80
2021/12/23 02:51:56;;;;;;;28.25;17.20;;;-2.70;99.90;;;;;;5057111;28;20236;-81
2021/12/23 02:54:24;;;;;;;27.88;16.30;;;-2.70;99.90;;;;;;5057074;28;20194;-80
2021/12/23 02:56:51;;;;;;;24.55;17.73;;;-2.60;99.90;;;;;;5057264;28;20217;-80
2021/12/23 02:59:18;;;;;;;30.50;17.02;;;-2.60;99.90;;;;;;5056886;28;20198;-80
2021/12/23 03:01:44;;;;;;;24.80;14.65;;;-2.60;99.90;;;;;;5057267;28;20229;-80
2021/12/23 03:04:11;;;;;;;25.90;17.67;;;-2.60;99.90;;;;;;5056423;28;20229;-80
2021/12/23 03:06:38;;;;;;;26.45;15.68;;;-2.50;99.90;;;;;;5037178;28;20210;-80
2021/12/23 03:09:05;;;;;;;22.70;15.73;;;-2.50;99.90;;;;;;5038143;28;20216;-80
2021/12/23 03:11:34;;;;;;;30.13;17.52;;;-2.50;99.90;;;;;;5057438;28;20229;-80
2021/12/23 03:14:01;;;;;;;26.75;16.92;;;-2.50;99.90;;;;;;5056786;28;20202;-80
2021/12/23 03:16:31;;;;;;;28.85;16.55;;;-2.50;99.90;;;;;;5056930;28;20217;-80
2021/12/23 03:18:58;;;;;;;28.58;18.88;;;-2.40;99.90;;;;;;5056007;28;20201;-80
2021/12/23 03:21:25;;;;;;;23.10;15.10;;;-2.40;99.90;;;;;;5056791;28;20723;-80
2021/12/23 03:23:52;;;;;;;30.77;16.60;;;-2.40;99.90;;;;;;5056439;28;20573;-80
2021/12/23 03:26:19;;;;;;;29.08;19.35;;;-2.40;99.90;;;;;;5056718;28;20221;-80
2021/12/23 03:28:48;;;;;;;22.27;14.82;;;-2.50;99.90;;;;;;5055856;28;20602;-80
2021/12/23 03:31:15;;;;;;;27.50;16.13;;;-2.50;99.90;;;;;;5077867;23;20320;-81
2021/12/23 03:33:42;;;;;;;26.90;17.00;;;-2.50;99.90;;;;;;5034385;28;20218;-82
2021/12/23 03:36:09;;;;;;;21.60;15.32;;;-2.50;99.90;;;;;;5037691;28;20214;-81
2021/12/23 03:38:36;;;;;;;31.65;17.40;;;-2.50;99.90;;;;;;5036936;28;20202;-81
2021/12/23 03:41:04;;;;;;;25.45;15.10;;;-2.50;99.90;;;;;;5037355;28;20297;-81
2021/12/23 03:43:31;;;;;;;27.02;15.30;;;-2.40;99.90;;;;;;5036891;28;20190;-81
2021/12/23 03:45:59;;;;;;;25.17;15.75;;;-2.40;99.90;;;;;;5036931;28;20217;-81
2021/12/23 03:48:26;;;;;;;18.90;11.10;;;-2.40;99.90;;;;;;5036783;28;20218;-81
2021/12/23 03:50:52;;;;;;;31.42;16.77;;;-2.40;99.90;;;;;;5040210;28;20584;-80
2021/12/23 03:53:19;;;;;;;24.55;13.65;;;-2.50;99.90;;;;;;5041383;28;20218;-80
2021/12/23 03:55:47;;;;;;;23.55;15.07;;;-2.40;99.90;;;;;;5039681;28;20237;-81
2021/12/23 03:58:14;;;;;;;31.55;16.40;;;-2.40;99.90;;;;;;5036998;28;20203;-81
2021/12/23 04:00:41;;;;;;;27.58;16.58;;;-2.40;99.90;;;;;;5037171;28;20218;-81
2021/12/23 04:03:10;;;;;;;26.05;15.10;;;-2.40;99.90;;;;;;5040552;28;20218;-81
2021/12/23 04:05:37;;;;;;;23.67;14.43;;;-2.40;99.90;;;;;;5040625;28;20209;-80
2021/12/23 04:08:05;;;;;;;26.08;16.08;;;-2.40;99.90;;;;;;5039403;28;20198;-81
2021/12/23 04:10:32;;;;;;;23.38;14.63;;;-2.40;99.90;;;;;;5036808;28;20206;-81
2021/12/23 04:12:59;;;;;;;26.70;16.27;;;-2.40;99.90;;;;;;5036521;28;20239;-81
2021/12/23 04:15:26;;;;;;;28.77;15.75;;;-2.30;99.90;;;;;;5041862;28;20255;-80
2021/12/23 04:17:53;;;;;;;28.08;16.08;;;-2.30;99.90;;;;;;5041006;28;20209;-81
2021/12/23 04:20:23;;;;;;;31.65;15.23;;;-2.30;99.90;;;;;;5039702;28;20210;-81
2021/12/23 04:22:52;;;;;;;31.17;15.80;;;-2.20;99.90;;;;;;5038155;28;20229;-81
2021/12/23 04:25:21;;;;;;;18.95;13.43;;;-2.20;99.90;;;;;;5036923;28;20213;-81
2021/12/23 04:27:51;;;;;;;26.10;15.82;;;-2.10;99.90;;;;;;5036018;28;20206;-81
2021/12/23 04:30:18;;;;;;;24.80;15.40;;;-2.10;99.90;;;;;;5036101;28;20206;-81
2021/12/23 04:32:45;;;;;;;20.13;12.88;;;-2.10;99.90;;;;;;5036405;28;20230;-81
2021/12/23 04:35:13;;;;;;;22.15;15.43;;;-2.00;99.90;;;;;;5036607;28;20198;-81
2021/12/23 04:37:41;;;;;;;23.80;14.48;;;-2.00;99.90;;;;;;5036589;28;20206;-81
2021/12/23 04:40:11;;;;;;;24.50;14.35;;;-1.90;99.90;;;;;;5036068;28;20213;-81
2021/12/23 04:42:38;;;;;;;17.67;13.18;;;-2.00;99.90;;;;;;5036276;28;20222;-81
2021/12/23 04:45:07;;;;;;;26.08;15.27;;;-2.00;99.90;;;;;;5035583;28;20230;-81
2021/12/23 04:47:35;;;;;;;22.27;13.55;;;-2.00;99.90;;;;;;5035953;28;20217;-83
2021/12/23 04:50:02;;;;;;;22.88;16.15;;;-2.00;99.90;;;;;;5035365;28;20199;-81
2021/12/23 04:52:28;;;;;;;24.05;16.23;;;-2.10;99.90;;;;;;5035578;28;20223;-81
2021/12/23 04:54:56;;;;;;;23.77;12.45;;;-2.10;99.90;;;;;;5036200;28;20210;-81
2021/12/23 04:57:23;;;;;;;22.00;13.38;;;-2.10;99.90;;;;;;5035902;28;20217;-81
2021/12/23 04:59:50;;;;;;;25.15;14.85;;;-2.00;99.90;;;;;;5035839;28;20210;-81
2021/12/23 05:02:17;;;;;;;21.15;14.50;;;-2.00;99.90;;;;;;5038181;28;20215;-81
2021/12/23 05:04:44;;;;;;;25.55;15.80;;;-2.10;99.90;;;;;;5042724;28;20206;-82
2021/12/23 05:07:11;;;;;;;23.30;14.48;;;-2.00;99.90;;;;;;5041577;28;20238;-81
2021/12/23 05:09:38;;;;;;;31.90;16.42;;;-2.00;99.90;;;;;;5036902;28;20210;-82
2021/12/23 05:12:07;;;;;;;31.60;18.00;;;-2.00;99.90;;;;;;5035454;28;20226;-81
2021/12/23 05:14:34;;;;;;;21.02;14.02;;;-2.00;99.90;;;;;;5035255;28;20210;-82
2021/12/23 05:17:01;;;;;;;20.92;12.38;;;-2.00;99.90;;;;;;5035205;28;20585;-81
2021/12/23 05:19:28;;;;;;;21.48;14.20;;;-2.10;99.90;;;;;;5035235;28;20613;-81
2021/12/23 05:21:55;;;;;;;27.83;15.63;;;-2.10;99.90;;;;;;5015673;28;20223;-81
2021/12/23 05:24:22;;;;;;;19.10;13.10;;;-2.10;99.90;;;;;;5015981;28;20211;-81
2021/12/23 05:26:48;;;;;;;20.40;12.13;;;-2.10;99.90;;;;;;5015457;28;20210;-82
2021/12/23 05:29:16;;;;;;;24.65;14.32;;;-2.10;99.90;;;;;;5015061;28;20209;-81
2021/12/23 05:31:43;;;;;;;27.08;14.32;;;-2.00;99.90;;;;;;5032306;28;20230;-81
2021/12/23 05:34:10;;;;;;;21.73;14.70;;;-2.00;99.90;;;;;;5035339;28;20233;-82
2021/12/23 05:36:37;;;;;;;23.67;14.25;;;-2.00;99.90;;;;;;5035110;28;20221;-81
2021/12/23 05:39:04;;;;;;;20.25;13.15;;;-1.90;99.90;;;;;;5034816;28;20214;-79
2021/12/23 05:41:31;;;;;;;23.88;16.15;;;-1.90;99.90;;;;;;5033357;28;20227;-79
2021/12/23 05:43:58;;;;;;;19.95;12.57;;;-1.90;99.90;;;;;;5033346;28;20195;-79
2021/12/23 05:46:27;;;;;;;25.40;15.02;;;-1.90;99.90;;;;;;5033447;28;20690;-79
2021/12/23 05:48:54;;;;;;;22.48;14.20;;;-1.90;99.90;;;;;;5033125;28;20206;-79
2021/12/23 05:51:21;;;;;;;26.58;15.15;;;-1.80;99.90;;;;;;5033285;28;20206;-80
2021/12/23 05:53:47;;;;;;;28.17;17.63;;;-1.80;99.90;;;;;;5032954;28;20218;-78
2021/12/23 05:56:14;;;;;;;29.05;15.63;;;-1.80;99.90;;;;;;5032996;28;20206;-79
2021/12/23 05:58:41;;;;;;;26.45;15.52;;;-1.80;99.90;;;;;;5032550;28;20663;-79
2021/12/23 06:01:08;;;;;;;21.42;12.85;;;-1.90;99.90;;;;;;5033100;28;20214;-79
2021/12/23 06:03:38;;;;;;;28.50;15.05;;;-1.90;99.90;;;;;;5033438;28;20202;-79
2021/12/23 06:06:05;;;;;;;23.17;13.10;;;-2.00;99.90;;;;;;5033131;28;20207;-79
2021/12/23 06:08:32;;;;;;;24.75;14.00;;;-2.00;99.90;;;;;;5034408;28;20217;-82
2021/12/23 06:10:58;;;;;;;23.33;13.80;;;-2.00;99.90;;;;;;5032914;28;20206;-78
2021/12/23 06:13:25;;;;;;;28.13;14.55;;;-2.00;99.90;;;;;;5033417;28;20237;-80
2021/12/23 06:15:52;;;;;;;29.58;14.60;;;-2.00;99.90;;;;;;5033128;28;20217;-78
2021/12/23 06:18:19;;;;;;;20.92;13.75;;;-2.00;99.90;;;;;;5032419;28;20213;-79
2021/12/23 06:20:47;;;;;;;26.17;15.35;;;-2.00;99.90;;;;;;5036220;28;20209;-81
2021/12/23 06:23:14;;;;;;;24.33;14.60;;;-2.10;99.90;;;;;;5034641;28;20313;-82
2021/12/23 06:25:41;;;;;;;26.88;15.13;;;-2.10;99.90;;;;;;5033196;28;20206;-79
2021/12/23 06:28:07;;;;;;;24.77;16.55;;;-2.10;99.90;;;;;;5032536;28;20210;-79
2021/12/23 06:30:34;;;;;;;26.83;14.95;;;-2.10;99.90;;;;;;5032015;28;20210;-79
2021/12/23 06:33:01;;;;;;;28.33;14.98;;;-2.10;99.90;;;;;;5032108;28;20241;-79
2021/12/23 06:35:30;;;;;;;23.15;15.57;;;-2.10;99.90;;;;;;5032266;28;20213;-79
2021/12/23 06:38:03;;;;;;;27.52;15.57;;;-2.00;99.90;;;;;;5032410;28;20218;-78
2021/12/23 06:40:30;;;;;;;30.48;16.23;;;-2.00;99.90;;;;;;5031777;28;20194;-78
2021/12/23 06:42:57;;;;;;;22.05;14.88;;;-2.00;99.90;;;;;;5031989;28;20226;-78
2021/12/23 06:45:24;;;;;;;24.17;16.08;;;-1.90;99.90;;;;;;5031872;28;20206;-78
2021/12/23 06:47:51;;;;;;;28.42;15.57;;;-1.90;99.90;;;;;;5032019;28;20202;-79
2021/12/23 06:50:20;;;;;;;26.05;15.50;;;-1.90;99.90;;;;;;5031391;28;20228;-78
2021/12/23 06:52:47;;;;;;;21.75;13.98;;;-1.90;99.90;;;;;;5031592;28;20602;-79
2021/12/23 06:55:16;;;;;;;31.70;14.45;;;-1.90;99.90;;;;;;5026229;28;20203;-78
2021/12/23 06:57:44;;;;;;;22.38;13.70;;;-1.90;99.90;;;;;;5020241;28;20206;-78
2021/12/23 07:00:14;;;;;;;25.92;14.45;;;-1.80;99.90;;;;;;5022234;28;20209;-79
2021/12/23 07:02:41;;;;;;;20.77;13.82;;;-1.90;99.90;;;;;;5019475;28;20223;-80
2021/12/23 07:05:09;;;;;;;23.60;14.45;;;-1.90;99.90;;;;;;5022819;28;20210;-79
2021/12/23 07:07:43;;;;;;;24.10;17.05;;;-1.90;99.90;;;;;;5020062;28;20204;-78
2021/12/23 07:10:10;;;;;;;26.02;14.35;;;-1.90;99.90;;;;;;5032194;28;20209;-79
2021/12/23 07:12:39;;;;;;;25.75;15.98;;;-1.90;99.90;;;;;;5036664;28;20237;-81
2021/12/23 07:15:07;;;;;;;27.05;14.80;;;-1.90;99.90;;;;;;5037043;28;20252;-80
2021/12/23 07:17:35;;;;;;;28.48;17.17;;;-1.90;99.90;;;;;;5037404;28;20631;-80
2021/12/23 07:20:03;;;;;;;25.75;16.20;;;-1.90;99.90;;;;;;5036865;28;20206;-79
2021/12/23 07:22:29;;;;;;;28.52;16.27;;;-1.80;99.90;;;;;;5037601;28;20295;-80
2021/12/23 07:24:56;;;;;;;20.65;12.77;;;-1.80;99.90;;;;;;5036328;28;20675;-78
2021/12/23 07:27:23;;;;;;;19.75;14.43;;;-1.80;99.90;;;;;;5036348;28;20576;-79
2021/12/23 07:29:51;;;;;;;18.90;11.93;;;-1.80;99.90;;;;;;5035108;28;20261;-78
2021/12/23 07:32:18;;;;;;;21.48;15.45;;;-1.80;99.90;;;;;;5035046;28;20248;-78
2021/12/23 07:34:45;;;;;;;26.75;13.45;;;-1.80;99.90;;;;;;5035123;28;20230;-78
2021/12/23 07:37:12;;;;;;;24.58;15.77;;;-1.80;99.90;;;;;;5035116;28;20208;-79
2021/12/23 07:39:39;;;;;;;25.85;14.15;;;-1.80;99.90;;;;;;5035548;28;20210;-80
2021/12/23 07:42:14;;;;;;;23.00;13.85;;;-1.80;99.90;;;;;;5034727;28;20754;-78
2021/12/23 07:44:40;;;;;;;22.63;14.40;;;-1.80;99.90;;;;;;5034954;28;20201;-79
2021/12/23 07:47:09;;;;;;;25.00;15.68;;;-1.80;99.90;;;;;;5035288;28;20584;-78
2021/12/23 07:49:36;;;;;;;25.52;14.45;;;-1.70;99.90;;;;;;5035281;28;20206;-79
2021/12/23 07:52:03;;;;;;;24.92;18.20;;;-1.70;99.90;;;;;;5034359;28;20711;-77
2021/12/23 07:54:30;;;;;;;19.75;13.00;;;-1.60;99.90;;;;;;5035026;28;20237;-80
2021/12/23 07:56:57;;;;;;;25.58;16.40;;;-1.60;99.90;;;;;;5035055;28;20572;-78
2021/12/23 07:59:24;;;;;;;26.38;15.52;;;-1.60;99.90;;;;;;5035280;28;20210;-77
2021/12/23 08:01:50;;;;;;;25.33;14.15;;;-1.50;99.90;;;;;;5034550;28;20233;-79
2021/12/23 08:04:18;;;;;;;28.58;16.67;;;-1.50;99.90;;;;;;5035209;28;20207;-79
2021/12/23 08:06:51;;;;;;;22.48;14.60;;;-1.40;99.90;;;;;;5034552;28;20698;-79
2021/12/23 08:09:18;;;;;;;26.00;18.05;;;-1.40;99.90;;;;;;5034406;28;20191;-79
2021/12/23 08:11:44;;;;;;;23.33;14.27;;;-1.30;99.90;;;;;;5034061;28;20226;-79
2021/12/23 08:14:11;;;;;;;23.08;15.82;;;-1.30;99.90;;;;;;5034560;28;20226;-79
2021/12/23 08:16:38;;;;;;;25.42;16.00;;;-1.20;99.90;;;;;;5034635;28;20206;-79
2021/12/23 08:19:05;;;;;;;35.53;16.95;;;-1.20;99.90;;;;;;5034434;28;20214;-80
2021/12/23 08:21:33;;;;;;;29.65;15.02;;;-1.10;99.90;;;;;;5032614;28;20234;-79
2021/12/23 08:23:59;;;;;;;30.38;18.45;;;-1.00;99.90;;;;;;5034256;28;20293;-79
2021/12/23 08:26:28;;;;;;;31.73;17.63;;;-1.00;99.90;;;;;;5034136;28;20202;-79
2021/12/23 08:28:56;;;;;;;24.63;16.42;;;-0.90;99.90;;;;;;5034135;28;20257;-80
2021/12/23 08:31:22;;;;;;;22.55;13.65;;;-0.80;99.90;;;;;;5033749;28;20202;-79
2021/12/23 08:33:50;;;;;;;27.50;14.85;;;-0.70;99.90;;;;;;5034033;28;20211;-79
2021/12/23 08:36:17;;;;;;;27.38;13.85;;;-0.60;99.90;;;;;;5034311;28;20566;-79
2021/12/23 08:38:45;;;;;;;24.88;13.05;;;-0.50;99.90;;;;;;5034289;28;20207;-79
2021/12/23 08:41:12;;;;;;;18.67;13.88;;;-0.30;99.90;;;;;;5033635;28;20203;-79
2021/12/23 08:43:39;;;;;;;20.50;11.48;;;-0.20;99.90;;;;;;5034065;28;20306;-79
2021/12/23 08:46:06;;;;;;;20.75;12.50;;;-0.20;99.90;;;;;;5034206;28;20625;-79
2021/12/23 08:48:33;;;;;;;21.80;12.82;;;-0.20;99.90;;;;;;5034301;28;20685;-79
2021/12/23 08:51:00;;;;;;;23.85;13.50;;;-0.10;99.90;;;;;;5034531;28;20206;-80
2021/12/23 08:53:26;;;;;;;24.77;13.48;;;0.00;99.90;;;;;;5034941;28;20222;-79
2021/12/23 08:55:55;;;;;;;18.35;12.70;;;0.10;99.90;;;;;;5034896;28;20242;-78
2021/12/23 08:58:21;;;;;;;24.42;14.52;;;0.20;99.90;;;;;;5034286;28;20229;-79
2021/12/23 09:00:48;;;;;;;20.50;13.40;;;0.40;99.90;;;;;;5034031;28;20210;-79
2021/12/23 09:03:15;;;;;;;20.20;13.05;;;0.60;99.90;;;;;;5033648;28;20233;-79
2021/12/23 09:05:43;;;;;;;19.67;11.95;;;0.80;99.90;;;;;;5034129;28;20210;-78
2021/12/23 09:08:10;;;;;;;29.35;14.20;;;1.00;99.90;;;;;;5034299;28;20305;-80
2021/12/23 09:10:37;;;;;;;23.40;15.05;;;1.10;99.90;;;;;;5033661;28;20308;-78
2021/12/23 09:13:05;;;;;;;21.45;12.05;;;1.30;99.90;;;;;;5033963;28;20575;-79
2021/12/23 09:15:32;;;;;;;19.38;12.00;;;1.40;99.90;;;;;;5034304;28;20230;-79
2021/12/23 09:17:59;;;;;;;18.15;12.55;;;1.50;99.90;;;;;;5034003;28;20229;-79
2021/12/23 09:20:26;;;;;;;25.17;14.82;;;1.60;99.90;;;;;;5032998;28;20217;-80
2021/12/23 09:22:53;;;;;;;19.73;12.15;;;1.60;99.90;;;;;;5034162;28;20234;-78
2021/12/23 09:25:25;;;;;;;19.15;13.20;;;1.70;99.90;;;;;;5033780;28;20214;-80
2021/12/23 09:28:03;;;;;;;21.30;11.95;;;1.70;99.90;;;;;;5033651;28;20567;-79
2021/12/23 09:33:17;;;;;;;16.65;12.57;;;1.90;99.90;;;;;;5020068;23;20732;-80
2021/12/23 09:35:44;;;;;;;22.33;14.98;;;2.00;99.90;;;;;;4995873;28;20204;-80
2021/12/23 09:38:11;;;;;;;23.98;13.23;;;2.10;99.90;;;;;;4995469;28;20682;-79
2021/12/23 09:40:39;;;;;;;15.20;11.43;;;2.30;99.90;;;;;;4995040;28;20209;-80
2021/12/23 09:43:07;;;;;;;20.77;14.13;;;2.40;99.90;;;;;;5008992;28;20231;-80
2021/12/23 09:45:38;;;;;;;18.95;11.18;;;2.50;99.90;;;;;;5015087;28;20229;-80
2021/12/23 09:48:06;;;;;;;15.23;12.40;;;2.60;99.90;;;;;;5015144;28;20209;-79
2021/12/23 09:50:36;;;;;;;17.75;11.60;;;2.70;99.90;;;;;;5014978;28;20228;-80
2021/12/23 09:53:06;;;;;;;21.35;13.13;;;2.80;99.90;;;;;;5015321;28;20437;-79
2021/12/23 09:55:35;;;;;;;17.15;12.30;;;2.80;99.90;;;;;;5015132;28;20230;-81
2021/12/23 09:58:03;;;;;;;16.80;12.70;;;2.90;99.90;;;;;;5015076;28;20209;-80
2021/12/23 10:00:33;;;;;;;16.90;11.60;;;3.00;99.90;;;;;;5015400;28;20212;-80
2021/12/23 10:03:01;;;;;;;17.83;12.52;;;3.10;99.90;;;;;;5015723;28;20241;-80
2021/12/23 10:05:31;;;;;;;14.55;11.55;;;3.10;99.90;;;;;;5016541;28;20202;-81
2021/12/23 10:07:58;;;;;;;18.52;14.70;;;3.10;99.90;;;;;;5020549;28;20211;-80
2021/12/23 10:10:30;;;;;;;14.10;9.98;;;3.20;99.90;;;;;;5020314;28;20213;-80
2021/12/23 10:13:18;;;;;;;19.85;12.32;;;3.30;99.90;;;;;;5014721;28;20320;-80
2021/12/23 10:32:49;;;;;;;17.90;12.02;;;4.30;99.90;;;;;;5010723;28;20225;-80
2021/12/23 10:38:04;;;;;;;23.45;15.25;;;4.30;99.90;;;;;;5015121;28;20205;-81
2021/12/23 10:40:32;;;;;;;19.13;14.25;;;4.20;99.90;;;;;;5015578;28;20206;-80
2021/12/23 10:42:59;;;;;;;18.70;15.63;;;4.20;99.90;;;;;;5022125;28;20227;-80
2021/12/23 10:45:36;;;;;;;24.58;14.32;;;4.20;99.90;;;;;;5022989;28;20205;-80
2021/12/23 10:48:10;;;;;;;18.48;13.95;;;4.20;99.90;;;;;;5024157;28;20221;-80
2021/12/23 10:50:43;;;;;;;23.77;15.77;;;4.20;99.90;;;;;;5023380;28;20561;-80
2021/12/23 10:53:22;;;;;;;19.85;14.65;;;4.30;99.90;;;;;;5023890;28;20226;-80
2021/12/23 10:59:02;;;;;;;18.20;14.07;;;4.40;99.90;;;;;;5018855;28;20212;-81
2021/12/23 11:01:29;;;;;;;12.70;10.85;;;4.40;99.90;;;;;;5014453;28;20191;-81
2021/12/23 11:04:01;;;;;;;20.05;14.00;;;4.50;99.90;;;;;;5014909;28;20248;-81
2021/12/23 11:06:33;;;;;;;26.00;15.25;;;4.50;99.90;;;;;;5014972;28;20588;-81
2021/12/23 11:09:20;;;;;;;23.15;13.80;;;4.60;99.90;;;;;;5014244;28;20214;-81
2021/12/23 11:12:16;;;;;;;19.15;12.70;;;4.80;99.90;;;;;;5014091;28;20273;-81
2021/12/23 11:37:06;;;;;;;12.30;7.80;;;5.20;99.90;;;;;;5014305;28;20186;-81
2021/12/23 11:39:48;;;;;;;9.50;7.35;;;5.30;99.90;;;;;;5014286;28;20195;-81
2021/12/23 11:42:23;;;;;;;8.32;6.75;;;5.40;99.90;;;;;;5015043;28;20230;-81
2021/12/23 11:44:50;;;;;;;8.70;5.85;;;5.50;99.90;;;;;;5014266;28;20211;-81
2021/12/23 11:47:17;;;;;;;9.20;8.27;;;5.60;99.90;;;;;;5014233;28;20215;-81
2021/12/23 11:49:46;;;;;;;9.00;5.93;;;5.80;99.90;;;;;;5014492;28;20218;-81
2021/12/23 11:52:15;;;;;;;10.60;6.30;;;5.90;99.30;;;;;;5013919;28;20317;-81
2021/12/23 11:54:47;;;;;;;9.32;6.05;;;6.00;99.10;;;;;;5014672;28;20277;-81
2021/12/23 11:57:19;;;;;;;8.75;6.65;;;6.20;98.90;;;;;;5017641;28;20195;-81
2021/12/23 12:00:02;;;;;;;6.03;5.35;;;6.30;98.50;;;;;;5017862;28;20287;-81
2021/12/23 12:02:32;;;;;;;10.35;7.88;;;6.40;98.20;;;;;;5017534;28;20227;-81
2021/12/23 12:05:01;;;;;;;7.00;5.78;;;6.50;97.70;;;;;;5017911;28;20208;-81
2021/12/23 12:07:29;;;;;;;7.30;6.03;;;6.60;97.70;;;;;;5017717;28;20246;-81
2021/12/23 12:10:01;;;;;;;7.32;6.18;;;6.70;97.50;;;;;;5017686;28;20602;-81
2021/12/23 12:12:30;;;;;;;6.38;4.95;;;6.90;97.30;;;;;;5018100;28;20230;-81
2021/12/23 12:14:57;;;;;;;6.15;5.60;;;7.10;96.90;;;;;;5017727;28;20223;-81
2021/12/23 12:17:38;;;;;;;5.00;4.60;;;7.20;96.60;;;;;;5017430;28;20211;-81
2021/12/23 12:20:15;;;;;;;5.45;4.90;;;7.30;96.20;;;;;;5017484;28;20194;-81
2021/12/23 12:22:54;;;;;;;7.43;5.07;;;7.30;96.20;;;;;;5018140;28;20269;-81
2021/12/23 12:25:54;;;;;;;7.63;5.00;;;7.30;96.10;;;;;;5018507;28;20246;-81
2021/12/23 12:28:43;;;;;;;6.35;4.50;;;7.40;95.90;;;;;;5017928;28;20692;-81
2021/12/23 12:31:14;;;;;;;4.30;3.88;;;7.30;95.90;;;;;;5003678;28;20222;-81
2021/12/23 12:33:52;;;;;;;5.95;4.18;;;7.40;95.90;;;;;;5017054;28;20262;-81
2021/12/23 12:36:19;;;;;;;6.30;3.70;;;7.40;95.80;;;;;;5016994;28;20269;-81
2021/12/23 12:38:47;;;;;;;4.65;4.25;;;7.50;95.70;;;;;;5016753;28;20707;-81
2021/12/23 12:41:17;;;;;;;4.78;4.18;;;7.60;95.30;;;;;;5016361;28;20211;-81
2021/12/23 12:43:59;;;;;;;5.18;4.10;;;7.60;95.00;;;;;;5016631;28;20223;-81
2021/12/23 12:46:52;;;;;;;5.30;4.65;;;7.70;95.10;;;;;;5017233;28;20302;-81
2021/12/23 12:49:24;;;;;;;6.25;4.75;;;7.70;95.10;;;;;;5017135;28;20207;-81
2021/12/23 12:51:53;;;;;;;4.35;4.03;;;7.60;94.70;;;;;;5016930;28;20778;-82
2021/12/23 12:54:27;;;;;;;5.43;4.88;;;7.70;94.90;;;;;;5016848;28;20587;-81
2021/12/23 12:56:58;;;;;;;5.97;3.83;;;7.80;95.10;;;;;;5017063;28;20653;-81
2021/12/23 12:59:27;;;;;;;4.53;4.13;;;7.70;94.70;;;;;;5016678;28;20195;-81
2021/12/23 13:01:55;;;;;;;5.18;4.78;;;7.70;94.80;;;;;;5016854;28;20230;-81
2021/12/23 13:04:25;;;;;;;4.47;3.88;;;7.70;94.70;;;;;;5016750;28;20252;-81
2021/12/23 13:06:52;;;;;;;4.05;3.72;;;7.80;94.90;;;;;;5016203;28;20685;-81
2021/12/23 13:09:23;;;;;;;6.00;4.55;;;7.70;94.80;;;;;;5017449;28;20210;-81
2021/12/23 13:11:50;;;;;;;4.18;3.78;;;7.70;94.60;;;;;;5017394;28;20598;-81
2021/12/23 13:14:24;;;;;;;7.65;4.40;;;7.50;94.60;;;;;;5017240;28;20577;-81
2021/12/23 13:16:53;;;;;;;5.45;4.40;;;7.60;94.80;;;;;;5016079;28;20664;-81
2021/12/23 13:19:30;;;;;;;4.30;4.00;;;7.60;94.70;;;;;;5016342;28;20211;-81
2021/12/23 13:21:59;;;;;;;4.60;4.03;;;7.60;94.70;;;;;;5016002;28;20232;-81
2021/12/23 13:24:29;;;;;;;4.18;3.88;;;7.70;94.70;;;;;;5016112;28;20222;-81
2021/12/23 13:26:57;;;;;;;5.78;4.63;;;7.70;94.50;;;;;;5016158;28;20206;-81
2021/12/23 13:29:28;;;;;;;4.88;4.47;;;7.70;94.50;;;;;;5016082;28;20203;-81
2021/12/23 13:31:57;;;;;;;4.68;3.58;;;7.70;94.50;;;;;;5016341;28;20240;-81
2021/12/23 13:34:26;;;;;;;5.60;4.22;;;7.70;94.40;;;;;;5015752;28;20211;-81